Time;durP1;ratioP1;P1;durP2;ratioP2;P2;SDS_P1;SDS_P2;PMS_P1;PMS_P2;Temp;Humidity;BMP_temperature;BMP_pressure;BME280_temperature;BME280_humidity;BME280_pressure;Samples;Min_cycle;Max_cycle;Signal;HPM_P1;HPM_P2
2021/05/23 00:01:26;;;;;;;7.50;2.70;;;15.30;83.60;;;;;;5095717;28;20021;-70
2021/05/23 00:03:52;;;;;;;8.80;2.85;;;15.30;83.70;;;;;;5095950;28;20028;-70
2021/05/23 00:06:17;;;;;;;10.70;2.72;;;15.30;83.70;;;;;;5095970;28;20028;-71
2021/05/23 00:08:43;;;;;;;12.15;3.35;;;15.30;83.60;;;;;;5096115;28;20020;-72
2021/05/23 00:11:10;;;;;;;6.10;2.55;;;15.30;83.70;;;;;;5095754;28;20024;-71
2021/05/23 00:13:44;;;;;;;7.43;2.70;;;15.30;83.90;;;;;;5095422;28;20405;-71
2021/05/23 00:16:19;;;;;;;10.88;3.17;;;15.30;84.00;;;;;;5095637;28;20035;-71
2021/05/23 00:18:48;;;;;;;8.07;3.00;;;15.30;84.10;;;;;;5095694;28;20027;-72
2021/05/23 00:21:16;;;;;;;7.93;2.53;;;15.20;83.90;;;;;;5095870;28;20028;-71
2021/05/23 00:23:42;;;;;;;7.38;2.47;;;15.20;84.00;;;;;;5095666;28;20024;-70
2021/05/23 00:26:08;;;;;;;6.15;2.50;;;15.30;84.20;;;;;;5095622;28;20027;-70
2021/05/23 00:28:35;;;;;;;6.53;2.58;;;15.30;84.30;;;;;;5095511;28;20035;-70
2021/05/23 00:31:02;;;;;;;10.55;2.80;;;15.20;84.30;;;;;;5095758;28;20016;-70
2021/05/23 00:33:28;;;;;;;7.95;2.60;;;15.20;84.50;;;;;;5095665;28;20073;-71
2021/05/23 00:35:54;;;;;;;8.07;2.75;;;15.30;84.70;;;;;;5094933;28;20040;-70
2021/05/23 00:38:19;;;;;;;6.65;2.92;;;15.30;84.70;;;;;;5095517;28;20099;-70
2021/05/23 00:40:45;;;;;;;9.30;2.60;;;15.30;84.80;;;;;;5095415;28;20028;-70
2021/05/23 00:43:13;;;;;;;10.18;2.80;;;15.30;84.80;;;;;;5095216;28;20590;-70
2021/05/23 00:45:39;;;;;;;7.05;2.88;;;15.30;84.80;;;;;;5095410;28;20361;-70
2021/05/23 00:48:06;;;;;;;5.05;2.80;;;15.30;84.80;;;;;;5094964;28;20020;-70
2021/05/23 00:50:32;;;;;;;7.97;2.40;;;15.30;84.80;;;;;;5095183;28;20073;-70
2021/05/23 00:53:00;;;;;;;5.90;2.30;;;15.30;84.80;;;;;;5095046;28;20104;-71
2021/05/23 00:55:26;;;;;;;7.72;2.75;;;15.30;84.80;;;;;;5094426;28;20056;-70
2021/05/23 00:57:51;;;;;;;9.65;3.17;;;15.20;84.70;;;;;;5093815;28;20054;-71
2021/05/23 01:00:43;;;;;;;10.15;2.88;;;15.20;84.70;;;;;;5092117;28;20178;-70
2021/05/23 01:05:53;;;;;;;9.07;2.45;;;15.30;84.60;;;;;;5094288;28;20486;-70
2021/05/23 01:08:21;;;;;;;7.50;2.60;;;15.30;84.80;;;;;;5094701;28;20073;-71
2021/05/23 01:11:29;;;;;;;6.97;2.50;;;15.30;84.50;;;;;;5094407;28;20479;-70
2021/05/23 01:13:58;;;;;;;9.77;2.10;;;15.20;84.20;;;;;;5093892;28;20515;-71
2021/05/23 01:16:48;;;;;;;5.70;2.20;;;15.20;83.90;;;;;;5094355;28;20020;-71
2021/05/23 01:19:20;;;;;;;15.35;2.25;;;15.20;83.70;;;;;;5094433;28;20020;-70
2021/05/23 01:21:52;;;;;;;8.35;2.38;;;15.20;84.00;;;;;;5094453;28;20468;-71
2021/05/23 01:24:34;;;;;;;6.25;2.50;;;15.20;84.20;;;;;;5093945;28;20123;-70
2021/05/23 01:27:00;;;;;;;5.53;2.38;;;15.20;84.70;;;;;;5094257;28;20027;-71
2021/05/23 01:29:26;;;;;;;6.80;2.65;;;15.20;85.20;;;;;;5094045;28;20023;-70
2021/05/23 01:31:54;;;;;;;8.63;2.67;;;15.10;85.30;;;;;;5094423;28;20020;-70
2021/05/23 01:34:22;;;;;;;6.53;2.78;;;15.10;85.50;;;;;;5094435;28;20032;-70
2021/05/23 01:36:51;;;;;;;5.93;2.47;;;15.10;85.60;;;;;;5093689;28;20050;-71
2021/05/23 01:39:17;;;;;;;4.65;1.92;;;15.10;85.60;;;;;;5093670;28;20107;-71
2021/05/23 01:41:43;;;;;;;6.60;2.17;;;15.10;85.50;;;;;;5094165;28;20103;-70
2021/05/23 01:44:10;;;;;;;6.45;2.08;;;15.10;85.30;;;;;;5093865;28;20496;-71
2021/05/23 01:46:36;;;;;;;11.02;2.58;;;15.10;85.20;;;;;;5093880;28;20504;-71
2021/05/23 01:49:03;;;;;;;5.40;2.10;;;15.10;85.20;;;;;;5093818;28;20098;-71
2021/05/23 01:51:29;;;;;;;4.07;2.10;;;15.10;85.00;;;;;;5093554;28;20089;-70
2021/05/23 01:53:55;;;;;;;7.70;2.35;;;15.10;85.10;;;;;;5094208;28;20028;-70
2021/05/23 01:56:20;;;;;;;7.25;2.20;;;15.10;85.20;;;;;;5093390;28;20055;-70
2021/05/23 01:58:46;;;;;;;7.32;2.25;;;15.10;85.30;;;;;;5093119;28;20035;-70
2021/05/23 02:01:12;;;;;;;6.65;1.90;;;15.10;85.50;;;;;;5093504;28;20039;-71
2021/05/23 02:03:38;;;;;;;6.45;2.80;;;15.10;85.30;;;;;;5093819;28;20028;-70
2021/05/23 02:06:05;;;;;;;6.00;2.38;;;15.20;85.50;;;;;;5093799;28;20035;-70
2021/05/23 02:08:33;;;;;;;7.15;2.70;;;15.10;85.80;;;;;;5093775;28;20066;-70
2021/05/23 02:11:04;;;;;;;6.03;2.03;;;15.10;86.00;;;;;;5093633;28;20028;-70
2021/05/23 02:13:31;;;;;;;7.87;2.43;;;15.20;86.40;;;;;;5093723;28;20030;-70
2021/05/23 02:15:57;;;;;;;8.30;2.60;;;15.20;86.40;;;;;;5093165;28;20118;-71
2021/05/23 02:18:23;;;;;;;7.75;2.60;;;15.10;86.30;;;;;;5093595;28;20048;-73
2021/05/23 02:20:48;;;;;;;10.98;2.72;;;15.10;86.50;;;;;;5093369;28;20121;-71
2021/05/23 02:23:16;;;;;;;7.65;2.28;;;15.10;86.80;;;;;;5093377;28;20024;-71
2021/05/23 02:25:42;;;;;;;10.10;2.67;;;15.10;87.00;;;;;;5093663;28;20402;-71
2021/05/23 02:28:11;;;;;;;5.93;2.80;;;15.10;87.00;;;;;;5093123;28;20024;-71
2021/05/23 02:30:53;;;;;;;6.10;1.98;;;15.10;87.20;;;;;;5093214;28;20031;-71
2021/05/23 02:33:20;;;;;;;11.35;2.55;;;15.10;87.20;;;;;;5093514;28;20031;-70
2021/05/23 02:35:49;;;;;;;7.35;2.70;;;15.10;87.10;;;;;;5092313;28;20033;-71
2021/05/23 02:38:16;;;;;;;11.52;2.67;;;15.10;87.00;;;;;;5093258;28;20028;-70
2021/05/23 02:40:44;;;;;;;13.32;2.65;;;15.10;86.80;;;;;;5093230;28;20031;-71
2021/05/23 02:43:11;;;;;;;4.28;2.13;;;15.10;86.70;;;;;;5093638;28;20372;-71
2021/05/23 02:45:38;;;;;;;7.03;2.10;;;15.10;86.40;;;;;;5093242;28;20374;-71
2021/05/23 02:48:05;;;;;;;9.15;2.28;;;15.10;86.10;;;;;;5093191;28;20069;-70
2021/05/23 02:50:35;;;;;;;10.95;2.90;;;15.10;86.10;;;;;;5092826;28;20032;-71
2021/05/23 02:53:01;;;;;;;6.13;2.20;;;15.10;86.00;;;;;;5093217;28;20095;-71
2021/05/23 02:55:27;;;;;;;8.40;2.30;;;15.10;86.10;;;;;;5092996;28;20051;-71
2021/05/23 02:57:53;;;;;;;10.13;2.47;;;15.10;86.20;;;;;;5093089;28;20024;-71
2021/05/23 03:00:22;;;;;;;11.93;2.45;;;15.10;86.50;;;;;;5092953;28;20081;-71
2021/05/23 03:02:50;;;;;;;5.85;2.10;;;15.10;86.70;;;;;;5092757;28;20020;-71
2021/05/23 03:05:20;;;;;;;6.55;2.38;;;15.10;86.90;;;;;;5092857;28;20020;-70
2021/05/23 03:07:49;;;;;;;8.65;2.70;;;15.10;87.00;;;;;;5093012;28;20095;-70
2021/05/23 03:10:21;;;;;;;10.93;2.97;;;15.10;87.00;;;;;;5092912;28;20024;-71
2021/05/23 03:12:47;;;;;;;10.90;2.60;;;15.10;86.90;;;;;;5092814;28;20023;-70
2021/05/23 03:15:15;;;;;;;6.22;2.58;;;15.20;86.70;;;;;;5092716;28;20024;-71
2021/05/23 03:17:41;;;;;;;10.32;3.33;;;15.20;86.70;;;;;;5093006;28;20384;-70
2021/05/23 03:20:08;;;;;;;9.18;3.15;;;15.20;86.70;;;;;;5092622;28;20099;-70
2021/05/23 03:22:36;;;;;;;6.72;2.55;;;15.20;86.70;;;;;;5092757;28;20111;-71
2021/05/23 03:25:03;;;;;;;11.60;3.20;;;15.10;86.70;;;;;;5092714;28;20350;-71
2021/05/23 03:27:29;;;;;;;7.88;2.90;;;15.10;86.80;;;;;;5092793;28;20028;-70
2021/05/23 03:29:55;;;;;;;6.38;3.30;;;15.10;87.10;;;;;;5092643;28;20391;-70
2021/05/23 03:32:20;;;;;;;10.10;3.05;;;15.20;87.30;;;;;;5092923;28;20506;-71
2021/05/23 03:34:46;;;;;;;8.20;2.95;;;15.10;87.30;;;;;;5092463;28;20044;-70
2021/05/23 03:37:12;;;;;;;7.40;3.20;;;15.10;87.60;;;;;;5092784;28;20028;-71
2021/05/23 03:39:37;;;;;;;7.60;2.90;;;15.10;87.80;;;;;;5092361;28;20028;-71
2021/05/23 03:42:03;;;;;;;12.40;2.97;;;15.10;87.80;;;;;;5092991;28;20024;-71
2021/05/23 03:44:29;;;;;;;7.10;2.80;;;15.20;87.90;;;;;;5092839;28;20024;-70
2021/05/23 03:46:55;;;;;;;8.05;3.35;;;15.10;87.80;;;;;;5094550;28;20031;-71
2021/05/23 03:49:21;;;;;;;9.70;3.35;;;15.20;88.00;;;;;;5096089;28;20028;-70
2021/05/23 03:51:48;;;;;;;8.80;3.08;;;15.20;88.00;;;;;;5096304;28;20032;-70
2021/05/23 03:54:14;;;;;;;9.70;3.38;;;15.20;88.00;;;;;;5096289;28;20024;-70
2021/05/23 03:56:40;;;;;;;6.53;2.97;;;15.20;88.00;;;;;;5096170;28;20051;-71
2021/05/23 03:59:05;;;;;;;7.20;3.25;;;15.20;88.00;;;;;;5095994;28;20483;-70
2021/05/23 04:01:31;;;;;;;6.15;3.10;;;15.20;88.20;;;;;;5095657;28;20115;-70
2021/05/23 04:03:59;;;;;;;12.60;3.38;;;15.20;88.10;;;;;;5095677;28;20065;-71
2021/05/23 04:06:25;;;;;;;9.80;3.22;;;15.20;88.20;;;;;;5095680;28;20127;-70
2021/05/23 04:08:51;;;;;;;10.73;3.88;;;15.20;88.20;;;;;;5096045;28;20056;-70
2021/05/23 04:11:21;;;;;;;13.23;2.92;;;15.30;88.30;;;;;;5095665;28;20031;-70
2021/05/23 04:13:47;;;;;;;6.93;2.63;;;15.30;88.30;;;;;;5094160;28;20540;-70
2021/05/23 04:16:13;;;;;;;10.05;3.58;;;15.30;88.40;;;;;;5095701;28;20114;-71
2021/05/23 04:18:39;;;;;;;12.85;3.15;;;15.30;88.40;;;;;;5095441;28;20052;-70
2021/05/23 04:21:05;;;;;;;8.75;3.03;;;15.30;88.50;;;;;;5095442;28;20056;-70
2021/05/23 04:23:31;;;;;;;11.57;3.35;;;15.30;88.60;;;;;;5095635;28;20560;-71
2021/05/23 04:25:57;;;;;;;9.43;3.30;;;15.30;88.70;;;;;;5095767;28;20491;-70
2021/05/23 04:28:24;;;;;;;11.20;3.38;;;15.30;88.70;;;;;;5094644;28;20031;-71
2021/05/23 04:30:50;;;;;;;11.32;3.60;;;15.30;88.70;;;;;;5094837;28;20028;-71
2021/05/23 04:33:16;;;;;;;14.48;3.47;;;15.40;88.70;;;;;;5095029;28;20578;-70
2021/05/23 04:35:44;;;;;;;12.05;3.40;;;15.30;88.70;;;;;;5095281;28;20036;-71
2021/05/23 04:38:10;;;;;;;10.77;3.90;;;15.40;88.60;;;;;;5095168;28;20021;-70
2021/05/23 04:40:36;;;;;;;10.05;4.25;;;15.40;88.70;;;;;;5093823;28;20024;-70
2021/05/23 04:43:02;;;;;;;12.25;3.25;;;15.40;88.70;;;;;;5095032;28;20077;-70
2021/05/23 04:45:28;;;;;;;10.93;3.83;;;15.50;88.60;;;;;;5095362;28;20020;-71
2021/05/23 04:47:54;;;;;;;11.15;3.33;;;15.50;88.60;;;;;;5095234;28;20024;-71
2021/05/23 04:50:20;;;;;;;13.60;3.53;;;15.50;88.70;;;;;;5094639;28;20069;-70
2021/05/23 04:52:46;;;;;;;11.68;3.63;;;15.50;88.80;;;;;;5094825;28;20020;-70
2021/05/23 04:55:12;;;;;;;14.18;4.03;;;15.50;89.00;;;;;;5094901;28;20488;-70
2021/05/23 04:57:38;;;;;;;16.55;3.72;;;15.50;89.20;;;;;;5093921;28;20053;-71
2021/05/23 05:00:05;;;;;;;11.63;3.88;;;15.50;89.30;;;;;;5094668;28;20016;-71
2021/05/23 05:02:31;;;;;;;14.45;4.00;;;15.60;89.50;;;;;;5094573;28;20027;-70
2021/05/23 05:04:57;;;;;;;22.20;4.97;;;15.60;89.30;;;;;;5094891;28;20545;-71
2021/05/23 05:07:22;;;;;;;13.00;3.80;;;15.60;89.30;;;;;;5094673;28;20073;-71
2021/05/23 05:09:48;;;;;;;15.10;3.88;;;15.60;89.50;;;;;;5094829;28;20035;-71
2021/05/23 05:12:14;;;;;;;12.43;3.65;;;15.60;89.50;;;;;;5094485;28;20095;-71
2021/05/23 05:14:40;;;;;;;10.48;3.50;;;15.70;89.60;;;;;;5094236;28;20028;-71
2021/05/23 05:17:05;;;;;;;16.13;3.92;;;15.70;89.50;;;;;;5094363;28;20028;-71
2021/05/23 05:19:31;;;;;;;20.85;4.18;;;15.60;89.40;;;;;;5094302;28;20020;-71
2021/05/23 05:21:57;;;;;;;16.60;4.18;;;15.70;89.40;;;;;;5094262;28;20483;-71
2021/05/23 05:24:22;;;;;;;17.75;4.05;;;15.70;89.40;;;;;;5094083;28;20031;-70
2021/05/23 05:26:48;;;;;;;18.58;4.10;;;15.70;89.30;;;;;;5094184;28;20024;-71
2021/05/23 05:29:14;;;;;;;24.02;4.90;;;15.80;89.10;;;;;;5093923;28;20093;-70
2021/05/23 05:31:40;;;;;;;17.00;4.43;;;15.80;89.00;;;;;;5094240;28;20074;-71
2021/05/23 05:34:06;;;;;;;21.90;4.40;;;15.90;88.70;;;;;;5093640;28;20077;-71
2021/05/23 05:36:31;;;;;;;22.85;4.50;;;15.90;88.50;;;;;;5094247;28;20032;-71
2021/05/23 05:38:57;;;;;;;20.70;4.45;;;16.00;88.50;;;;;;5094081;28;20027;-71
2021/05/23 05:41:23;;;;;;;20.55;4.78;;;16.00;88.60;;;;;;5094119;28;20086;-71
2021/05/23 05:43:49;;;;;;;18.17;4.43;;;16.00;88.70;;;;;;5093896;28;20023;-70
2021/05/23 05:46:15;;;;;;;18.77;4.40;;;16.10;88.90;;;;;;5093929;28;20020;-70
2021/05/23 05:48:41;;;;;;;23.20;5.22;;;16.10;88.70;;;;;;5093661;28;20092;-70
2021/05/23 05:51:07;;;;;;;23.85;4.45;;;16.10;88.50;;;;;;5093766;28;20034;-70
2021/05/23 05:53:33;;;;;;;18.13;4.25;;;16.20;88.60;;;;;;5093623;28;20024;-71
2021/05/23 05:56:00;;;;;;;23.40;4.93;;;16.20;88.70;;;;;;5093418;28;20382;-71
2021/05/23 05:58:25;;;;;;;16.20;4.20;;;16.20;88.70;;;;;;5093819;28;20024;-70
2021/05/23 06:00:51;;;;;;;18.45;4.75;;;16.30;88.90;;;;;;5093619;28;20472;-70
2021/05/23 06:03:17;;;;;;;24.75;5.35;;;16.30;88.90;;;;;;5093932;28;20122;-70
2021/05/23 06:05:42;;;;;;;25.05;4.75;;;16.30;88.90;;;;;;5093658;28;20035;-70
2021/05/23 06:08:08;;;;;;;32.85;5.50;;;16.40;88.90;;;;;;5093271;28;20020;-70
2021/05/23 06:10:34;;;;;;;24.90;5.13;;;16.40;89.00;;;;;;5092926;28;20024;-71
2021/05/23 06:13:00;;;;;;;25.55;4.95;;;16.40;88.80;;;;;;5093249;28;20430;-71
2021/05/23 06:15:27;;;;;;;19.85;5.70;;;16.50;88.80;;;;;;5092136;28;20043;-71
2021/05/23 06:17:53;;;;;;;27.38;6.03;;;16.50;88.90;;;;;;5090737;28;20480;-71
2021/05/23 06:20:19;;;;;;;28.13;5.20;;;16.50;88.80;;;;;;5090966;28;20118;-71
2021/05/23 06:22:45;;;;;;;19.48;4.90;;;16.50;88.70;;;;;;5092077;28;20073;-72
2021/05/23 06:25:11;;;;;;;29.23;6.22;;;16.60;88.70;;;;;;5093043;28;20023;-71
2021/05/23 06:27:37;;;;;;;19.80;5.13;;;16.60;88.60;;;;;;5091977;28;20025;-70
2021/05/23 06:30:05;;;;;;;29.17;5.30;;;16.60;88.60;;;;;;5093572;28;20020;-70
2021/05/23 06:32:31;;;;;;;23.67;4.72;;;16.60;88.50;;;;;;5093042;28;20060;-71
2021/05/23 06:34:56;;;;;;;22.33;4.90;;;16.60;88.70;;;;;;5093299;28;20100;-71
2021/05/23 06:37:22;;;;;;;21.75;4.78;;;16.60;88.50;;;;;;5093069;28;20039;-71
2021/05/23 06:39:48;;;;;;;21.40;5.15;;;16.70;88.70;;;;;;5092755;28;20107;-71
2021/05/23 06:42:13;;;;;;;32.58;5.55;;;16.70;88.80;;;;;;5092874;28;20099;-71
2021/05/23 06:44:39;;;;;;;24.73;5.45;;;16.70;88.60;;;;;;5093143;28;20495;-71
2021/05/23 06:47:05;;;;;;;15.07;4.43;;;16.80;88.70;;;;;;5092757;28;20024;-71
2021/05/23 06:49:31;;;;;;;22.40;5.10;;;16.80;88.80;;;;;;5092687;28;20028;-70
2021/05/23 06:51:58;;;;;;;31.38;5.53;;;16.80;88.70;;;;;;5092768;28;20031;-71
2021/05/23 06:54:23;;;;;;;18.48;4.38;;;16.90;88.80;;;;;;5092506;28;20552;-71
2021/05/23 06:56:49;;;;;;;25.30;5.35;;;16.90;88.70;;;;;;5090676;28;20115;-71
2021/05/23 06:59:15;;;;;;;32.83;6.78;;;16.90;88.70;;;;;;5090105;28;20031;-71
2021/05/23 07:01:41;;;;;;;21.98;5.10;;;16.90;88.70;;;;;;5091828;28;20032;-71
2021/05/23 07:04:06;;;;;;;24.33;5.50;;;17.00;88.60;;;;;;5093093;28;20123;-71
2021/05/23 07:06:32;;;;;;;23.20;4.90;;;17.00;88.40;;;;;;5092786;28;20390;-71
2021/05/23 07:08:58;;;;;;;22.30;5.40;;;17.00;88.30;;;;;;5093038;28;20028;-71
2021/05/23 07:11:24;;;;;;;20.35;6.03;;;17.00;88.40;;;;;;5091071;28;20105;-71
2021/05/23 07:13:50;;;;;;;31.63;6.03;;;17.00;88.40;;;;;;5092450;28;20050;-73
2021/05/23 07:16:16;;;;;;;26.65;6.13;;;17.10;88.50;;;;;;5091947;28;20032;-71
2021/05/23 07:18:42;;;;;;;27.38;5.30;;;17.10;88.30;;;;;;5076638;28;20136;-72
2021/05/23 07:21:08;;;;;;;28.13;5.70;;;17.10;88.20;;;;;;5056182;28;20096;-71
2021/05/23 07:23:34;;;;;;;22.83;5.53;;;17.20;88.30;;;;;;5056603;28;20372;-71
2021/05/23 07:26:00;;;;;;;20.80;4.60;;;17.20;88.30;;;;;;5066489;28;20029;-71
2021/05/23 07:28:26;;;;;;;26.40;5.82;;;17.20;88.50;;;;;;5056251;28;20025;-71
2021/05/23 07:30:52;;;;;;;24.52;5.45;;;17.20;88.40;;;;;;5068964;28;20033;-71
2021/05/23 07:33:18;;;;;;;26.25;6.03;;;17.30;88.20;;;;;;5076071;28;20103;-71
2021/05/23 07:35:45;;;;;;;23.98;5.20;;;17.30;87.90;;;;;;5075904;28;20073;-71
2021/05/23 07:38:10;;;;;;;21.45;4.47;;;17.30;87.90;;;;;;5075661;28;20025;-71
2021/05/23 07:40:36;;;;;;;23.00;5.15;;;17.30;87.70;;;;;;5076143;28;20035;-71
2021/05/23 07:43:03;;;;;;;21.38;5.07;;;17.40;87.50;;;;;;5076084;28;20020;-71
2021/05/23 07:45:29;;;;;;;22.70;5.38;;;17.40;87.60;;;;;;5076534;28;20063;-71
2021/05/23 07:47:55;;;;;;;25.48;5.32;;;17.40;87.30;;;;;;5076204;28;20031;-68
2021/05/23 07:50:21;;;;;;;21.95;5.57;;;17.50;87.40;;;;;;5075860;28;20033;-69
2021/05/23 07:52:47;;;;;;;23.05;5.07;;;17.50;87.50;;;;;;5076043;28;20103;-70
2021/05/23 07:55:13;;;;;;;23.65;5.63;;;17.60;87.30;;;;;;5075453;28;20504;-69
2021/05/23 07:57:39;;;;;;;26.77;5.50;;;17.60;87.20;;;;;;5075493;28;20419;-69
2021/05/23 08:00:06;;;;;;;26.33;5.72;;;17.70;87.00;;;;;;5075630;28;20020;-69
2021/05/23 08:02:32;;;;;;;24.55;5.80;;;17.70;87.10;;;;;;5075981;28;20024;-69
2021/05/23 08:04:57;;;;;;;27.45;5.57;;;17.70;87.20;;;;;;5076074;28;20389;-74
2021/05/23 08:07:23;;;;;;;23.42;5.03;;;17.80;87.00;;;;;;5075602;28;20021;-71
2021/05/23 08:09:49;;;;;;;31.92;5.72;;;17.80;86.70;;;;;;5075456;28;20207;-78
2021/05/23 08:12:18;;;;;;;24.10;5.28;;;17.80;86.20;;;;;;5075893;28;20397;-69
2021/05/23 08:14:43;;;;;;;24.02;5.18;;;17.90;86.10;;;;;;5075626;28;20064;-70
2021/05/23 08:17:09;;;;;;;19.13;4.97;;;18.00;85.40;;;;;;5075519;28;20067;-70
2021/05/23 08:19:35;;;;;;;25.88;6.10;;;18.00;85.30;;;;;;5075729;28;20058;-69
2021/05/23 08:22:01;;;;;;;21.60;5.03;;;18.00;84.60;;;;;;5075526;28;20021;-69
2021/05/23 08:24:30;;;;;;;23.55;5.03;;;18.00;83.40;;;;;;5075343;28;20044;-70
2021/05/23 08:26:55;;;;;;;24.45;5.03;;;18.00;83.80;;;;;;5075067;28;20028;-70
2021/05/23 08:29:21;;;;;;;19.67;5.05;;;18.00;83.40;;;;;;5075153;28;20031;-72
2021/05/23 08:31:47;;;;;;;25.00;5.50;;;18.10;83.90;;;;;;5075287;28;20021;-72
2021/05/23 08:34:13;;;;;;;19.30;4.78;;;18.10;83.10;;;;;;5072671;28;20078;-72
2021/05/23 08:36:39;;;;;;;25.95;4.85;;;18.10;83.20;;;;;;5072462;28;20476;-71
2021/05/23 08:39:05;;;;;;;17.67;4.32;;;18.20;83.00;;;;;;5073409;28;20092;-72
2021/05/23 08:41:31;;;;;;;25.85;4.93;;;18.20;82.60;;;;;;5075369;28;20380;-71
2021/05/23 08:43:57;;;;;;;25.02;5.55;;;18.20;81.80;;;;;;5075243;28;20027;-71
2021/05/23 08:46:28;;;;;;;23.38;5.28;;;18.30;82.20;;;;;;5074075;28;20366;-72
2021/05/23 08:48:56;;;;;;;20.05;4.95;;;18.30;81.70;;;;;;5074877;28;20027;-71
2021/05/23 08:51:22;;;;;;;20.05;4.75;;;18.30;82.00;;;;;;5074788;28;20017;-72
2021/05/23 08:53:48;;;;;;;25.10;4.97;;;18.30;81.90;;;;;;5075120;28;20024;-71
2021/05/23 08:56:14;;;;;;;27.88;4.97;;;18.40;82.80;;;;;;5074184;28;20158;-71
2021/05/23 08:58:39;;;;;;;23.20;5.20;;;18.40;81.30;;;;;;5070515;28;20033;-72
2021/05/23 09:01:05;;;;;;;26.80;4.80;;;18.50;81.80;;;;;;5070953;28;20028;-72
2021/05/23 09:03:31;;;;;;;25.88;5.57;;;18.50;84.70;;;;;;5071654;28;20029;-71
2021/05/23 09:05:57;;;;;;;32.20;6.00;;;18.50;81.70;;;;;;5074369;28;20046;-71
2021/05/23 09:08:28;;;;;;;30.08;5.20;;;18.50;81.90;;;;;;5074669;28;20027;-71
2021/05/23 09:10:59;;;;;;;20.98;5.72;;;18.60;82.10;;;;;;5074842;28;20028;-72
2021/05/23 09:13:32;;;;;;;74.40;10.32;;;18.60;81.90;;;;;;5074525;28;20021;-72
2021/05/23 09:16:11;;;;;;;24.13;5.63;;;18.60;81.80;;;;;;5074683;28;20059;-71
2021/05/23 09:18:41;;;;;;;23.75;5.43;;;18.60;82.40;;;;;;5074304;28;20035;-71
2021/05/23 09:21:08;;;;;;;33.45;6.63;;;18.60;81.90;;;;;;5074167;28;20039;-71
2021/05/23 09:24:01;;;;;;;19.60;5.03;;;18.60;82.30;;;;;;5074230;28;20070;-71
2021/05/23 09:26:42;;;;;;;22.40;5.25;;;18.70;83.30;;;;;;5073161;28;20496;-71
2021/05/23 09:29:15;;;;;;;23.95;6.47;;;18.70;81.70;;;;;;5073878;28;20039;-72
2021/05/23 09:31:41;;;;;;;27.20;5.78;;;18.80;83.60;;;;;;5074300;28;20066;-72
2021/05/23 09:34:08;;;;;;;22.15;4.78;;;18.80;81.50;;;;;;5074056;28;20104;-71
2021/05/23 09:36:47;;;;;;;22.02;5.05;;;18.80;81.40;;;;;;5073835;28;20036;-71
2021/05/23 09:39:13;;;;;;;28.05;6.10;;;18.80;80.80;;;;;;5073965;28;20016;-71
2021/05/23 09:41:39;;;;;;;22.63;5.75;;;18.70;81.10;;;;;;5074381;28;20384;-71
2021/05/23 09:44:12;;;;;;;25.90;5.93;;;18.70;80.80;;;;;;5073665;28;20021;-72
2021/05/23 09:46:59;;;;;;;17.35;4.45;;;18.70;80.60;;;;;;5074116;28;20037;-71
2021/05/23 09:49:26;;;;;;;24.77;5.30;;;18.70;80.70;;;;;;5073793;28;20103;-71
2021/05/23 09:52:03;;;;;;;30.20;6.15;;;18.70;81.40;;;;;;5073964;28;20023;-71
2021/05/23 09:54:41;;;;;;;24.52;5.88;;;18.80;81.20;;;;;;5073826;28;20026;-72
2021/05/23 09:57:16;;;;;;;27.48;6.30;;;18.90;81.50;;;;;;5074192;28;20448;-71
2021/05/23 09:59:41;;;;;;;24.63;5.03;;;19.00;81.80;;;;;;5073535;28;20051;-71
2021/05/23 10:02:09;;;;;;;26.75;5.55;;;19.00;80.80;;;;;;5073567;28;20477;-72
2021/05/23 10:04:36;;;;;;;24.05;5.10;;;19.10;80.50;;;;;;5073738;28;20035;-71
2021/05/23 10:07:03;;;;;;;26.42;6.35;;;19.20;80.90;;;;;;5073622;28;20055;-71
2021/05/23 10:09:29;;;;;;;20.63;5.13;;;19.20;80.70;;;;;;5073596;28;20414;-71
2021/05/23 10:11:56;;;;;;;28.15;5.72;;;19.30;80.60;;;;;;5072463;28;20024;-71
2021/05/23 10:14:22;;;;;;;19.77;5.22;;;19.30;81.00;;;;;;5069437;28;20037;-72
2021/05/23 10:16:52;;;;;;;24.90;5.40;;;19.50;79.40;;;;;;5070674;28;20021;-72
2021/05/23 10:19:29;;;;;;;20.67;5.03;;;19.70;78.70;;;;;;5073141;28;20445;-71
2021/05/23 10:21:57;;;;;;;25.67;5.63;;;19.80;78.40;;;;;;5073584;28;20515;-70
2021/05/23 10:24:30;;;;;;;23.17;5.07;;;19.90;77.40;;;;;;5073128;28;20043;-71
2021/05/23 10:26:59;;;;;;;27.92;5.15;;;20.00;77.00;;;;;;5073255;28;20792;-71
2021/05/23 10:29:26;;;;;;;22.63;5.60;;;20.00;76.70;;;;;;5072901;28;20036;-71
2021/05/23 10:32:05;;;;;;;23.95;5.43;;;20.00;76.80;;;;;;5072835;28;20028;-71
2021/05/23 10:34:34;;;;;;;24.60;6.40;;;20.00;76.70;;;;;;5073123;28;20024;-72
2021/05/23 10:37:01;;;;;;;23.92;5.03;;;20.10;77.30;;;;;;5071745;28;20369;-71
2021/05/23 10:39:35;;;;;;;20.80;5.30;;;20.10;76.60;;;;;;5069943;28;20092;-72
2021/05/23 10:42:03;;;;;;;21.17;5.10;;;20.20;76.40;;;;;;5070172;28;20082;-71
2021/05/23 10:44:42;;;;;;;21.20;5.72;;;20.20;76.20;;;;;;5072092;28;20419;-71
2021/05/23 10:47:14;;;;;;;23.38;5.15;;;20.30;76.40;;;;;;5073214;28;20035;-72
2021/05/23 10:49:57;;;;;;;;;;;20.40;75.00;;;;;;5073071;28;20120;-72
2021/05/23 10:52:28;;;;;;;20.98;4.93;;;20.50;75.30;;;;;;5072574;28;19904;-69
2021/05/23 10:55:10;;;;;;;24.65;5.18;;;20.50;74.00;;;;;;5072859;28;20095;-70
2021/05/23 10:57:45;;;;;;;22.52;5.15;;;20.60;74.70;;;;;;5076044;28;20017;-71
2021/05/23 11:00:35;;;;;;;23.98;5.15;;;20.70;74.00;;;;;;5076766;28;20025;-71
2021/05/23 11:03:17;;;;;;;24.98;5.07;;;20.70;74.10;;;;;;5077026;28;20035;-71
2021/05/23 11:05:44;;;;;;;18.35;4.85;;;20.80;73.30;;;;;;5076960;28;20500;-71
2021/05/23 11:08:13;;;;;;;21.65;4.72;;;20.80;72.80;;;;;;5076885;28;20385;-72
2021/05/23 11:10:40;;;;;;;23.38;5.28;;;20.80;73.80;;;;;;5076762;28;20035;-71
2021/05/23 11:13:07;;;;;;;27.63;5.40;;;20.90;73.20;;;;;;5076795;28;20027;-72
2021/05/23 11:15:47;;;;;;;29.73;5.93;;;20.90;72.50;;;;;;5076562;28;20032;-71
2021/05/23 11:18:23;;;;;;;21.88;5.07;;;20.90;73.10;;;;;;5076636;28;20021;-71
2021/05/23 11:20:59;;;;;;;25.75;5.38;;;20.90;72.90;;;;;;5076551;28;20491;-71
2021/05/23 11:23:25;;;;;;;23.67;5.15;;;21.00;73.00;;;;;;5091967;28;20384;-71
2021/05/23 11:26:12;;;;;;;19.08;5.07;;;21.00;71.40;;;;;;5076601;28;20043;-72
2021/05/23 11:28:38;;;;;;;28.05;6.13;;;21.00;71.60;;;;;;5076703;28;20032;-71
2021/05/23 11:31:09;;;;;;;29.15;6.07;;;21.10;72.50;;;;;;5076414;28;20040;-72
2021/05/23 11:33:34;;;;;;;21.85;5.68;;;21.20;73.10;;;;;;5076622;28;20103;-72
2021/05/23 11:36:00;;;;;;;21.85;4.72;;;21.30;70.90;;;;;;5076181;28;20120;-72
2021/05/23 11:38:36;;;;;;;23.75;4.65;;;21.40;70.20;;;;;;5073143;28;20029;-72
2021/05/23 11:41:04;;;;;;;26.10;4.78;;;21.40;70.80;;;;;;5073367;28;20500;-72
2021/05/23 11:43:30;;;;;;;18.30;4.68;;;21.50;71.60;;;;;;5073825;28;20070;-72
2021/05/23 11:45:58;;;;;;;21.88;4.28;;;21.50;69.80;;;;;;5076001;28;20028;-71
2021/05/23 11:48:41;;;;;;;18.42;4.55;;;21.40;69.20;;;;;;5076283;28;20028;-72
2021/05/23 11:51:13;;;;;;;18.45;4.60;;;21.50;70.40;;;;;;5076039;28;20055;-71
2021/05/23 11:53:45;;;;;;;23.30;4.53;;;21.50;70.00;;;;;;5076143;28;20074;-72
2021/05/23 11:56:20;;;;;;;29.55;5.65;;;21.60;70.50;;;;;;5075838;28;20404;-72
2021/05/23 11:58:46;;;;;;;19.65;4.70;;;21.70;69.40;;;;;;5075645;28;20484;-72
2021/05/23 12:01:18;;;;;;;27.08;5.20;;;21.60;69.40;;;;;;5075871;28;20031;-72
2021/05/23 12:04:11;;;;;;;27.52;5.53;;;21.50;69.90;;;;;;5076097;28;20387;-72
2021/05/23 12:06:42;;;;;;;20.90;4.90;;;21.40;70.70;;;;;;5075570;28;20024;-71
2021/05/23 12:09:12;;;;;;;21.52;4.45;;;21.40;69.30;;;;;;5074627;28;20361;-71
2021/05/23 12:11:58;;;;;;;26.10;6.07;;;21.40;70.40;;;;;;5075863;28;20032;-72
2021/05/23 12:14:35;;;;;;;19.80;4.70;;;21.50;70.00;;;;;;5075611;28;20104;-72
2021/05/23 12:17:04;;;;;;;20.90;4.72;;;21.50;69.30;;;;;;5075749;28;20036;-72
2021/05/23 12:19:45;;;;;;;16.60;4.07;;;21.60;70.20;;;;;;5075640;28;20104;-71
2021/05/23 12:22:14;;;;;;;23.65;4.88;;;21.70;67.30;;;;;;5075528;28;20107;-71
2021/05/23 12:24:40;;;;;;;21.95;5.18;;;21.80;68.20;;;;;;5075465;28;20547;-71
2021/05/23 12:27:06;;;;;;;20.20;4.15;;;21.80;67.60;;;;;;5075439;28;20050;-71
2021/05/23 12:29:32;;;;;;;14.85;3.67;;;21.80;65.90;;;;;;5075433;28;20021;-71
2021/05/23 12:32:02;;;;;;;19.65;4.00;;;21.90;66.00;;;;;;5075568;28;20036;-72
2021/05/23 12:34:27;;;;;;;17.52;4.30;;;21.90;65.90;;;;;;5075077;28;20361;-71
2021/05/23 12:36:59;;;;;;;17.77;4.43;;;21.90;65.80;;;;;;5075189;28;20032;-71
2021/05/23 12:39:25;;;;;;;19.20;5.05;;;21.90;65.40;;;;;;5075051;28;20564;-72
2021/05/23 12:41:53;;;;;;;26.17;4.60;;;21.80;66.00;;;;;;5075013;28;20107;-72
2021/05/23 12:44:21;;;;;;;26.08;5.10;;;21.80;65.20;;;;;;5075160;28;20468;-72
2021/05/23 12:46:48;;;;;;;23.10;4.78;;;21.70;65.40;;;;;;5075025;28;20066;-71
2021/05/23 12:49:22;;;;;;;20.30;5.25;;;21.60;67.20;;;;;;5075071;28;20017;-72